sensor_id;sensor_type;location;lat;lon;timestamp;P1;durP1;ratioP1;P2;durP2;ratioP2
5898;SDS011;2975;50.956;6.962;2023-03-09T00:01:51;14.97;;;11.20;;
5898;SDS011;2975;50.956;6.962;2023-03-09T00:04:18;20.57;;;14.40;;
5898;SDS011;2975;50.956;6.962;2023-03-09T00:06:44;16.43;;;11.53;;
5898;SDS011;2975;50.956;6.962;2023-03-09T00:09:10;14.80;;;11.20;;
5898;SDS011;2975;50.956;6.962;2023-03-09T00:11:39;15.10;;;10.97;;
5898;SDS011;2975;50.956;6.962;2023-03-09T00:14:09;17.17;;;10.83;;
5898;SDS011;2975;50.956;6.962;2023-03-09T00:16:36;17.00;;;11.03;;
5898;SDS011;2975;50.956;6.962;2023-03-09T00:19:03;16.40;;;10.83;;
5898;SDS011;2975;50.956;6.962;2023-03-09T00:21:29;17.30;;;11.30;;
5898;SDS011;2975;50.956;6.962;2023-03-09T00:24:05;16.97;;;12.53;;
5898;SDS011;2975;50.956;6.962;2023-03-09T00:26:35;17.73;;;11.70;;
5898;SDS011;2975;50.956;6.962;2023-03-09T00:29:03;16.77;;;11.77;;
5898;SDS011;2975;50.956;6.962;2023-03-09T00:31:30;19.30;;;12.47;;
5898;SDS011;2975;50.956;6.962;2023-03-09T00:33:55;18.57;;;12.17;;
5898;SDS011;2975;50.956;6.962;2023-03-09T00:36:21;15.97;;;11.03;;
5898;SDS011;2975;50.956;6.962;2023-03-09T00:38:53;17.47;;;11.40;;
5898;SDS011;2975;50.956;6.962;2023-03-09T00:41:21;17.03;;;11.77;;
5898;SDS011;2975;50.956;6.962;2023-03-09T00:43:48;15.57;;;10.93;;
5898;SDS011;2975;50.956;6.962;2023-03-09T00:46:14;14.43;;;10.80;;
5898;SDS011;2975;50.956;6.962;2023-03-09T00:48:41;15.17;;;11.07;;
5898;SDS011;2975;50.956;6.962;2023-03-09T00:51:07;17.33;;;10.77;;
5898;SDS011;2975;50.956;6.962;2023-03-09T00:53:33;17.70;;;11.17;;
5898;SDS011;2975;50.956;6.962;2023-03-09T00:56:03;18.17;;;11.60;;
5898;SDS011;2975;50.956;6.962;2023-03-09T00:58:30;15.07;;;11.27;;
5898;SDS011;2975;50.956;6.962;2023-03-09T01:00:56;18.77;;;12.00;;
5898;SDS011;2975;50.956;6.962;2023-03-09T01:03:22;15.70;;;11.37;;
5898;SDS011;2975;50.956;6.962;2023-03-09T01:05:48;16.37;;;11.63;;
5898;SDS011;2975;50.956;6.962;2023-03-09T01:08:13;18.23;;;12.53;;
5898;SDS011;2975;50.956;6.962;2023-03-09T01:10:40;17.00;;;11.97;;
5898;SDS011;2975;50.956;6.962;2023-03-09T01:13:06;15.40;;;11.03;;
5898;SDS011;2975;50.956;6.962;2023-03-09T01:15:32;17.73;;;12.30;;
5898;SDS011;2975;50.956;6.962;2023-03-09T01:17:58;17.67;;;12.40;;
5898;SDS011;2975;50.956;6.962;2023-03-09T01:20:23;15.87;;;11.77;;
5898;SDS011;2975;50.956;6.962;2023-03-09T01:22:49;14.70;;;10.77;;
5898;SDS011;2975;50.956;6.962;2023-03-09T01:25:15;15.97;;;11.67;;
5898;SDS011;2975;50.956;6.962;2023-03-09T01:27:40;15.67;;;11.47;;
5898;SDS011;2975;50.956;6.962;2023-03-09T01:30:06;16.83;;;11.70;;
5898;SDS011;2975;50.956;6.962;2023-03-09T01:32:32;17.77;;;11.90;;
5898;SDS011;2975;50.956;6.962;2023-03-09T01:34:58;19.30;;;12.83;;
5898;SDS011;2975;50.956;6.962;2023-03-09T01:37:24;21.87;;;12.20;;
5898;SDS011;2975;50.956;6.962;2023-03-09T01:39:50;16.00;;;10.67;;
5898;SDS011;2975;50.956;6.962;2023-03-09T01:42:15;17.77;;;12.30;;
5898;SDS011;2975;50.956;6.962;2023-03-09T01:44:41;20.30;;;12.37;;
5898;SDS011;2975;50.956;6.962;2023-03-09T01:47:06;17.37;;;12.07;;
5898;SDS011;2975;50.956;6.962;2023-03-09T01:52:13;18.87;;;11.80;;
5898;SDS011;2975;50.956;6.962;2023-03-09T01:57:27;19.30;;;12.17;;
5898;SDS011;2975;50.956;6.962;2023-03-09T01:59:55;17.60;;;12.33;;
5898;SDS011;2975;50.956;6.962;2023-03-09T02:02:24;16.70;;;12.10;;
5898;SDS011;2975;50.956;6.962;2023-03-09T02:04:55;19.93;;;12.37;;
5898;SDS011;2975;50.956;6.962;2023-03-09T02:07:24;18.20;;;11.90;;
5898;SDS011;2975;50.956;6.962;2023-03-09T02:10:14;18.07;;;12.23;;
5898;SDS011;2975;50.956;6.962;2023-03-09T02:12:57;18.57;;;11.10;;
5898;SDS011;2975;50.956;6.962;2023-03-09T02:15:26;17.13;;;11.80;;
5898;SDS011;2975;50.956;6.962;2023-03-09T02:17:52;16.13;;;11.77;;
5898;SDS011;2975;50.956;6.962;2023-03-09T02:22:58;18.53;;;12.60;;
5898;SDS011;2975;50.956;6.962;2023-03-09T02:25:30;18.27;;;11.77;;
5898;SDS011;2975;50.956;6.962;2023-03-09T02:28:08;18.67;;;12.43;;
5898;SDS011;2975;50.956;6.962;2023-03-09T02:30:34;16.43;;;10.90;;
5898;SDS011;2975;50.956;6.962;2023-03-09T02:33:02;17.30;;;11.70;;
5898;SDS011;2975;50.956;6.962;2023-03-09T02:35:33;16.70;;;10.93;;
5898;SDS011;2975;50.956;6.962;2023-03-09T02:37:59;16.70;;;11.90;;
5898;SDS011;2975;50.956;6.962;2023-03-09T02:40:27;16.00;;;11.93;;
5898;SDS011;2975;50.956;6.962;2023-03-09T02:43:02;19.83;;;12.83;;
5898;SDS011;2975;50.956;6.962;2023-03-09T02:45:29;20.10;;;12.63;;
5898;SDS011;2975;50.956;6.962;2023-03-09T02:47:55;21.13;;;13.50;;
5898;SDS011;2975;50.956;6.962;2023-03-09T02:50:22;21.60;;;14.07;;
5898;SDS011;2975;50.956;6.962;2023-03-09T02:52:48;21.50;;;13.57;;
5898;SDS011;2975;50.956;6.962;2023-03-09T02:55:14;23.27;;;14.17;;
5898;SDS011;2975;50.956;6.962;2023-03-09T02:57:40;21.60;;;15.07;;
5898;SDS011;2975;50.956;6.962;2023-03-09T03:00:07;26.17;;;15.67;;
5898;SDS011;2975;50.956;6.962;2023-03-09T03:02:34;28.13;;;17.03;;
5898;SDS011;2975;50.956;6.962;2023-03-09T03:04:59;28.60;;;16.83;;
5898;SDS011;2975;50.956;6.962;2023-03-09T03:07:25;28.87;;;16.70;;
5898;SDS011;2975;50.956;6.962;2023-03-09T03:09:51;29.20;;;16.30;;
5898;SDS011;2975;50.956;6.962;2023-03-09T03:12:16;33.67;;;18.63;;
5898;SDS011;2975;50.956;6.962;2023-03-09T03:14:43;30.33;;;18.23;;
5898;SDS011;2975;50.956;6.962;2023-03-09T03:17:09;28.60;;;17.03;;
5898;SDS011;2975;50.956;6.962;2023-03-09T03:19:34;30.87;;;18.07;;
5898;SDS011;2975;50.956;6.962;2023-03-09T03:22:00;35.63;;;18.77;;
5898;SDS011;2975;50.956;6.962;2023-03-09T03:24:26;33.00;;;17.57;;
5898;SDS011;2975;50.956;6.962;2023-03-09T03:26:51;36.50;;;19.53;;
5898;SDS011;2975;50.956;6.962;2023-03-09T03:29:17;32.93;;;18.77;;
5898;SDS011;2975;50.956;6.962;2023-03-09T03:31:43;34.00;;;19.20;;
5898;SDS011;2975;50.956;6.962;2023-03-09T03:34:08;37.37;;;20.10;;
5898;SDS011;2975;50.956;6.962;2023-03-09T03:36:34;32.40;;;17.27;;
5898;SDS011;2975;50.956;6.962;2023-03-09T03:38:59;39.63;;;19.03;;
5898;SDS011;2975;50.956;6.962;2023-03-09T03:41:25;34.63;;;18.20;;
5898;SDS011;2975;50.956;6.962;2023-03-09T03:43:51;35.03;;;18.50;;
5898;SDS011;2975;50.956;6.962;2023-03-09T03:46:16;35.43;;;18.50;;
5898;SDS011;2975;50.956;6.962;2023-03-09T03:48:43;40.37;;;19.17;;
5898;SDS011;2975;50.956;6.962;2023-03-09T03:51:09;39.93;;;18.33;;
5898;SDS011;2975;50.956;6.962;2023-03-09T03:53:35;39.60;;;18.47;;
5898;SDS011;2975;50.956;6.962;2023-03-09T03:56:00;38.33;;;18.37;;
5898;SDS011;2975;50.956;6.962;2023-03-09T03:58:28;42.73;;;19.40;;
5898;SDS011;2975;50.956;6.962;2023-03-09T04:00:53;38.47;;;19.30;;
5898;SDS011;2975;50.956;6.962;2023-03-09T04:03:19;43.23;;;18.03;;
5898;SDS011;2975;50.956;6.962;2023-03-09T04:05:45;41.00;;;19.87;;
5898;SDS011;2975;50.956;6.962;2023-03-09T04:08:11;40.87;;;20.13;;
5898;SDS011;2975;50.956;6.962;2023-03-09T04:10:38;43.20;;;19.60;;
5898;SDS011;2975;50.956;6.962;2023-03-09T04:13:04;44.47;;;19.73;;
5898;SDS011;2975;50.956;6.962;2023-03-09T04:15:31;40.90;;;21.03;;
5898;SDS011;2975;50.956;6.962;2023-03-09T04:17:57;43.03;;;20.13;;
5898;SDS011;2975;50.956;6.962;2023-03-09T04:20:23;49.57;;;19.70;;
5898;SDS011;2975;50.956;6.962;2023-03-09T04:22:49;42.37;;;20.23;;
5898;SDS011;2975;50.956;6.962;2023-03-09T04:25:14;43.57;;;19.07;;
5898;SDS011;2975;50.956;6.962;2023-03-09T04:27:40;43.87;;;19.63;;
5898;SDS011;2975;50.956;6.962;2023-03-09T04:30:07;49.10;;;20.30;;
5898;SDS011;2975;50.956;6.962;2023-03-09T04:32:33;47.07;;;20.57;;
5898;SDS011;2975;50.956;6.962;2023-03-09T04:34:59;45.57;;;19.40;;
5898;SDS011;2975;50.956;6.962;2023-03-09T04:37:25;57.70;;;21.90;;
5898;SDS011;2975;50.956;6.962;2023-03-09T04:39:50;45.93;;;20.10;;
5898;SDS011;2975;50.956;6.962;2023-03-09T04:42:16;39.93;;;19.13;;
5898;SDS011;2975;50.956;6.962;2023-03-09T04:44:41;38.63;;;19.10;;
5898;SDS011;2975;50.956;6.962;2023-03-09T04:47:08;44.90;;;18.50;;
5898;SDS011;2975;50.956;6.962;2023-03-09T04:49:38;41.93;;;17.47;;
5898;SDS011;2975;50.956;6.962;2023-03-09T04:52:05;38.80;;;17.83;;
5898;SDS011;2975;50.956;6.962;2023-03-09T04:54:31;37.80;;;17.03;;
5898;SDS011;2975;50.956;6.962;2023-03-09T04:56:57;37.47;;;17.67;;
5898;SDS011;2975;50.956;6.962;2023-03-09T04:59:23;38.57;;;17.83;;
5898;SDS011;2975;50.956;6.962;2023-03-09T05:01:48;39.33;;;17.63;;
5898;SDS011;2975;50.956;6.962;2023-03-09T05:04:14;38.00;;;17.63;;
5898;SDS011;2975;50.956;6.962;2023-03-09T05:06:39;41.47;;;17.37;;
5898;SDS011;2975;50.956;6.962;2023-03-09T05:09:05;39.50;;;17.13;;
5898;SDS011;2975;50.956;6.962;2023-03-09T05:11:31;39.67;;;18.13;;
5898;SDS011;2975;50.956;6.962;2023-03-09T05:13:58;38.93;;;17.10;;
5898;SDS011;2975;50.956;6.962;2023-03-09T05:16:23;32.60;;;17.17;;
5898;SDS011;2975;50.956;6.962;2023-03-09T05:18:49;38.20;;;16.60;;
5898;SDS011;2975;50.956;6.962;2023-03-09T05:21:16;34.50;;;15.67;;
5898;SDS011;2975;50.956;6.962;2023-03-09T05:23:42;32.53;;;15.53;;
5898;SDS011;2975;50.956;6.962;2023-03-09T05:26:09;33.00;;;16.23;;
5898;SDS011;2975;50.956;6.962;2023-03-09T05:28:35;33.00;;;16.10;;
5898;SDS011;2975;50.956;6.962;2023-03-09T05:31:02;34.13;;;16.53;;
5898;SDS011;2975;50.956;6.962;2023-03-09T05:33:32;32.47;;;15.77;;
5898;SDS011;2975;50.956;6.962;2023-03-09T05:35:57;33.30;;;16.40;;
5898;SDS011;2975;50.956;6.962;2023-03-09T05:38:23;29.90;;;15.60;;
5898;SDS011;2975;50.956;6.962;2023-03-09T05:40:48;33.50;;;15.90;;
5898;SDS011;2975;50.956;6.962;2023-03-09T05:43:14;31.13;;;14.90;;
5898;SDS011;2975;50.956;6.962;2023-03-09T05:45:40;27.50;;;13.83;;
5898;SDS011;2975;50.956;6.962;2023-03-09T05:48:05;27.33;;;13.90;;
5898;SDS011;2975;50.956;6.962;2023-03-09T05:50:31;26.47;;;13.37;;
5898;SDS011;2975;50.956;6.962;2023-03-09T05:52:57;27.67;;;13.03;;
5898;SDS011;2975;50.956;6.962;2023-03-09T05:55:23;26.00;;;13.60;;
5898;SDS011;2975;50.956;6.962;2023-03-09T05:57:49;25.10;;;14.00;;
5898;SDS011;2975;50.956;6.962;2023-03-09T06:00:15;25.10;;;12.67;;
5898;SDS011;2975;50.956;6.962;2023-03-09T06:02:41;25.30;;;13.90;;
5898;SDS011;2975;50.956;6.962;2023-03-09T06:05:07;26.93;;;12.90;;
5898;SDS011;2975;50.956;6.962;2023-03-09T06:07:33;27.43;;;13.93;;
5898;SDS011;2975;50.956;6.962;2023-03-09T06:09:58;23.87;;;12.67;;
5898;SDS011;2975;50.956;6.962;2023-03-09T06:12:24;26.20;;;13.00;;
5898;SDS011;2975;50.956;6.962;2023-03-09T06:14:50;23.37;;;13.33;;
5898;SDS011;2975;50.956;6.962;2023-03-09T06:17:17;22.30;;;11.87;;
5898;SDS011;2975;50.956;6.962;2023-03-09T06:19:43;26.80;;;13.53;;
5898;SDS011;2975;50.956;6.962;2023-03-09T06:22:09;27.27;;;13.57;;
5898;SDS011;2975;50.956;6.962;2023-03-09T06:24:35;26.73;;;15.37;;
5898;SDS011;2975;50.956;6.962;2023-03-09T06:27:01;20.27;;;11.87;;
5898;SDS011;2975;50.956;6.962;2023-03-09T06:29:28;20.47;;;11.53;;
5898;SDS011;2975;50.956;6.962;2023-03-09T06:31:54;21.90;;;11.90;;
5898;SDS011;2975;50.956;6.962;2023-03-09T06:34:20;19.57;;;11.40;;
5898;SDS011;2975;50.956;6.962;2023-03-09T06:36:46;21.47;;;12.00;;
5898;SDS011;2975;50.956;6.962;2023-03-09T06:39:11;22.27;;;12.57;;
5898;SDS011;2975;50.956;6.962;2023-03-09T06:41:37;20.50;;;12.00;;
5898;SDS011;2975;50.956;6.962;2023-03-09T06:44:03;22.77;;;11.50;;
5898;SDS011;2975;50.956;6.962;2023-03-09T06:46:29;24.50;;;12.53;;
5898;SDS011;2975;50.956;6.962;2023-03-09T06:48:55;25.43;;;11.93;;
5898;SDS011;2975;50.956;6.962;2023-03-09T06:51:20;20.20;;;11.77;;
5898;SDS011;2975;50.956;6.962;2023-03-09T06:53:47;23.53;;;12.10;;
5898;SDS011;2975;50.956;6.962;2023-03-09T06:56:13;22.63;;;12.37;;
5898;SDS011;2975;50.956;6.962;2023-03-09T06:58:38;23.37;;;12.20;;
5898;SDS011;2975;50.956;6.962;2023-03-09T07:01:14;23.40;;;11.47;;
5898;SDS011;2975;50.956;6.962;2023-03-09T07:03:40;22.20;;;12.37;;
5898;SDS011;2975;50.956;6.962;2023-03-09T07:06:06;20.33;;;11.60;;
5898;SDS011;2975;50.956;6.962;2023-03-09T07:08:32;23.77;;;12.53;;
5898;SDS011;2975;50.956;6.962;2023-03-09T07:10:58;21.50;;;12.37;;
5898;SDS011;2975;50.956;6.962;2023-03-09T07:13:24;21.50;;;11.93;;
5898;SDS011;2975;50.956;6.962;2023-03-09T07:15:49;19.47;;;12.23;;
5898;SDS011;2975;50.956;6.962;2023-03-09T07:18:15;20.43;;;11.37;;
5898;SDS011;2975;50.956;6.962;2023-03-09T07:20:41;21.83;;;11.30;;
5898;SDS011;2975;50.956;6.962;2023-03-09T07:23:07;19.97;;;11.57;;
5898;SDS011;2975;50.956;6.962;2023-03-09T07:25:33;23.00;;;12.00;;
5898;SDS011;2975;50.956;6.962;2023-03-09T07:28:01;21.27;;;11.57;;
5898;SDS011;2975;50.956;6.962;2023-03-09T07:30:28;20.90;;;11.40;;
5898;SDS011;2975;50.956;6.962;2023-03-09T07:32:55;18.17;;;10.10;;
5898;SDS011;2975;50.956;6.962;2023-03-09T07:35:21;21.60;;;12.30;;
5898;SDS011;2975;50.956;6.962;2023-03-09T07:37:47;21.73;;;12.17;;
5898;SDS011;2975;50.956;6.962;2023-03-09T07:40:12;27.30;;;13.30;;
5898;SDS011;2975;50.956;6.962;2023-03-09T07:42:38;26.07;;;14.87;;
5898;SDS011;2975;50.956;6.962;2023-03-09T07:45:04;23.27;;;13.97;;
5898;SDS011;2975;50.956;6.962;2023-03-09T07:47:32;25.27;;;12.67;;
5898;SDS011;2975;50.956;6.962;2023-03-09T07:49:58;22.53;;;12.70;;
5898;SDS011;2975;50.956;6.962;2023-03-09T07:52:25;17.43;;;10.97;;
5898;SDS011;2975;50.956;6.962;2023-03-09T07:54:56;19.60;;;11.03;;
5898;SDS011;2975;50.956;6.962;2023-03-09T07:57:22;21.27;;;12.13;;
5898;SDS011;2975;50.956;6.962;2023-03-09T07:59:52;19.83;;;11.17;;
5898;SDS011;2975;50.956;6.962;2023-03-09T08:02:19;22.73;;;11.87;;
5898;SDS011;2975;50.956;6.962;2023-03-09T08:04:45;22.13;;;13.27;;
5898;SDS011;2975;50.956;6.962;2023-03-09T08:07:11;18.77;;;11.80;;
5898;SDS011;2975;50.956;6.962;2023-03-09T08:09:36;19.63;;;10.60;;
5898;SDS011;2975;50.956;6.962;2023-03-09T08:12:02;17.83;;;9.77;;
5898;SDS011;2975;50.956;6.962;2023-03-09T08:14:28;16.47;;;9.80;;
5898;SDS011;2975;50.956;6.962;2023-03-09T08:16:54;18.57;;;10.90;;
5898;SDS011;2975;50.956;6.962;2023-03-09T08:19:20;17.63;;;10.57;;
5898;SDS011;2975;50.956;6.962;2023-03-09T08:21:47;19.87;;;11.00;;
5898;SDS011;2975;50.956;6.962;2023-03-09T08:24:13;15.57;;;9.83;;
5898;SDS011;2975;50.956;6.962;2023-03-09T08:26:39;15.40;;;9.83;;
5898;SDS011;2975;50.956;6.962;2023-03-09T08:29:05;15.30;;;9.60;;
5898;SDS011;2975;50.956;6.962;2023-03-09T08:31:31;13.10;;;8.63;;
5898;SDS011;2975;50.956;6.962;2023-03-09T08:33:58;14.77;;;9.10;;
5898;SDS011;2975;50.956;6.962;2023-03-09T08:36:23;13.80;;;9.17;;
5898;SDS011;2975;50.956;6.962;2023-03-09T08:38:49;15.37;;;9.43;;
5898;SDS011;2975;50.956;6.962;2023-03-09T08:41:16;14.00;;;9.00;;
5898;SDS011;2975;50.956;6.962;2023-03-09T08:43:42;13.43;;;8.77;;
5898;SDS011;2975;50.956;6.962;2023-03-09T08:46:08;12.70;;;8.10;;
5898;SDS011;2975;50.956;6.962;2023-03-09T08:48:34;11.70;;;7.80;;
5898;SDS011;2975;50.956;6.962;2023-03-09T08:51:00;10.57;;;7.67;;
5898;SDS011;2975;50.956;6.962;2023-03-09T08:53:26;10.70;;;6.70;;
5898;SDS011;2975;50.956;6.962;2023-03-09T08:55:52;10.80;;;6.57;;
5898;SDS011;2975;50.956;6.962;2023-03-09T08:58:18;10.10;;;6.53;;
5898;SDS011;2975;50.956;6.962;2023-03-09T09:00:43;12.83;;;6.80;;
5898;SDS011;2975;50.956;6.962;2023-03-09T09:03:09;10.70;;;6.77;;
5898;SDS011;2975;50.956;6.962;2023-03-09T09:05:35;11.40;;;6.47;;
5898;SDS011;2975;50.956;6.962;2023-03-09T09:08:01;8.60;;;5.90;;
5898;SDS011;2975;50.956;6.962;2023-03-09T09:10:27;9.50;;;6.60;;
5898;SDS011;2975;50.956;6.962;2023-03-09T09:12:53;13.10;;;6.27;;
5898;SDS011;2975;50.956;6.962;2023-03-09T09:15:18;14.70;;;6.83;;
5898;SDS011;2975;50.956;6.962;2023-03-09T09:17:44;8.97;;;6.40;;
5898;SDS011;2975;50.956;6.962;2023-03-09T09:20:10;9.20;;;5.97;;
5898;SDS011;2975;50.956;6.962;2023-03-09T09:22:39;9.80;;;6.40;;
5898;SDS011;2975;50.956;6.962;2023-03-09T09:25:05;9.50;;;5.90;;
5898;SDS011;2975;50.956;6.962;2023-03-09T09:27:33;9.23;;;6.50;;
5898;SDS011;2975;50.956;6.962;2023-03-09T09:30:00;10.03;;;6.40;;
5898;SDS011;2975;50.956;6.962;2023-03-09T09:32:27;10.40;;;6.33;;
5898;SDS011;2975;50.956;6.962;2023-03-09T09:34:52;7.70;;;5.30;;
5898;SDS011;2975;50.956;6.962;2023-03-09T09:37:18;6.70;;;5.13;;
5898;SDS011;2975;50.956;6.962;2023-03-09T09:39:44;7.10;;;5.13;;
5898;SDS011;2975;50.956;6.962;2023-03-09T09:44:58;8.37;;;5.87;;
5898;SDS011;2975;50.956;6.962;2023-03-09T09:47:27;7.47;;;5.27;;
5898;SDS011;2975;50.956;6.962;2023-03-09T09:49:55;7.93;;;5.40;;
5898;SDS011;2975;50.956;6.962;2023-03-09T09:52:35;6.70;;;5.10;;
5898;SDS011;2975;50.956;6.962;2023-03-09T09:55:19;9.33;;;5.90;;
5898;SDS011;2975;50.956;6.962;2023-03-09T09:57:58;10.33;;;6.43;;
5898;SDS011;2975;50.956;6.962;2023-03-09T10:00:47;8.20;;;5.67;;
5898;SDS011;2975;50.956;6.962;2023-03-09T10:05:53;8.03;;;6.10;;
5898;SDS011;2975;50.956;6.962;2023-03-09T10:13:43;8.87;;;5.70;;
5898;SDS011;2975;50.956;6.962;2023-03-09T10:16:15;6.47;;;4.73;;
5898;SDS011;2975;50.956;6.962;2023-03-09T10:18:49;7.30;;;4.60;;
5898;SDS011;2975;50.956;6.962;2023-03-09T10:21:25;6.07;;;4.67;;
5898;SDS011;2975;50.956;6.962;2023-03-09T10:24:00;8.20;;;4.47;;
5898;SDS011;2975;50.956;6.962;2023-03-09T10:29:50;6.30;;;4.80;;
5898;SDS011;2975;50.956;6.962;2023-03-09T10:37:52;5.17;;;4.10;;
5898;SDS011;2975;50.956;6.962;2023-03-09T10:40:20;6.10;;;4.20;;
5898;SDS011;2975;50.956;6.962;2023-03-09T10:42:58;6.17;;;4.30;;
5898;SDS011;2975;50.956;6.962;2023-03-09T10:45:28;7.93;;;4.30;;
5898;SDS011;2975;50.956;6.962;2023-03-09T10:47:59;5.73;;;4.10;;
5898;SDS011;2975;50.956;6.962;2023-03-09T10:50:32;6.20;;;4.20;;
5898;SDS011;2975;50.956;6.962;2023-03-09T10:55:52;5.90;;;4.43;;
5898;SDS011;2975;50.956;6.962;2023-03-09T10:58:21;7.17;;;4.40;;
5898;SDS011;2975;50.956;6.962;2023-03-09T11:00:55;7.90;;;4.40;;
5898;SDS011;2975;50.956;6.962;2023-03-09T11:03:31;5.53;;;4.00;;
5898;SDS011;2975;50.956;6.962;2023-03-09T11:08:44;6.37;;;4.10;;
5898;SDS011;2975;50.956;6.962;2023-03-09T11:11:20;8.90;;;4.80;;
5898;SDS011;2975;50.956;6.962;2023-03-09T11:13:49;6.77;;;4.63;;
5898;SDS011;2975;50.956;6.962;2023-03-09T11:16:26;6.77;;;5.47;;
5898;SDS011;2975;50.956;6.962;2023-03-09T11:19:13;7.40;;;4.60;;
5898;SDS011;2975;50.956;6.962;2023-03-09T11:24:21;5.17;;;4.20;;
5898;SDS011;2975;50.956;6.962;2023-03-09T11:26:55;5.33;;;4.20;;
5898;SDS011;2975;50.956;6.962;2023-03-09T11:32:29;6.00;;;4.53;;
5898;SDS011;2975;50.956;6.962;2023-03-09T11:34:55;5.37;;;4.63;;
5898;SDS011;2975;50.956;6.962;2023-03-09T11:42:37;4.50;;;4.00;;
5898;SDS011;2975;50.956;6.962;2023-03-09T11:45:12;6.70;;;4.33;;
5898;SDS011;2975;50.956;6.962;2023-03-09T11:47:43;4.77;;;3.93;;
5898;SDS011;2975;50.956;6.962;2023-03-09T11:50:16;5.87;;;4.50;;
5898;SDS011;2975;50.956;6.962;2023-03-09T11:52:47;6.27;;;4.63;;
5898;SDS011;2975;50.956;6.962;2023-03-09T11:55:18;5.33;;;4.20;;
5898;SDS011;2975;50.956;6.962;2023-03-09T11:57:48;7.13;;;4.90;;
5898;SDS011;2975;50.956;6.962;2023-03-09T12:00:19;5.17;;;4.13;;
5898;SDS011;2975;50.956;6.962;2023-03-09T12:05:18;5.30;;;4.63;;
5898;SDS011;2975;50.956;6.962;2023-03-09T12:07:51;5.60;;;4.17;;
5898;SDS011;2975;50.956;6.962;2023-03-09T12:10:24;11.40;;;6.80;;
5898;SDS011;2975;50.956;6.962;2023-03-09T12:13:33;7.13;;;5.17;;
5898;SDS011;2975;50.956;6.962;2023-03-09T12:16:21;6.93;;;5.00;;
5898;SDS011;2975;50.956;6.962;2023-03-09T12:19:01;7.23;;;5.60;;
5898;SDS011;2975;50.956;6.962;2023-03-09T12:21:34;6.77;;;5.17;;
5898;SDS011;2975;50.956;6.962;2023-03-09T12:24:25;7.60;;;5.33;;
5898;SDS011;2975;50.956;6.962;2023-03-09T12:27:04;7.80;;;5.43;;
5898;SDS011;2975;50.956;6.962;2023-03-09T12:29:43;6.77;;;5.40;;
5898;SDS011;2975;50.956;6.962;2023-03-09T12:32:17;7.60;;;5.27;;
5898;SDS011;2975;50.956;6.962;2023-03-09T12:35:04;8.17;;;5.40;;
5898;SDS011;2975;50.956;6.962;2023-03-09T12:37:41;5.93;;;4.90;;
5898;SDS011;2975;50.956;6.962;2023-03-09T12:42:51;6.07;;;4.93;;
5898;SDS011;2975;50.956;6.962;2023-03-09T13:16:50;13.97;;;8.43;;
5898;SDS011;2975;50.956;6.962;2023-03-09T13:22:08;10.77;;;7.40;;
5898;SDS011;2975;50.956;6.962;2023-03-09T13:24:44;9.10;;;7.10;;
5898;SDS011;2975;50.956;6.962;2023-03-09T13:27:16;10.50;;;7.53;;
5898;SDS011;2975;50.956;6.962;2023-03-09T13:35:22;9.57;;;7.00;;
5898;SDS011;2975;50.956;6.962;2023-03-09T13:37:52;8.53;;;6.93;;
5898;SDS011;2975;50.956;6.962;2023-03-09T13:40:27;9.40;;;7.57;;
5898;SDS011;2975;50.956;6.962;2023-03-09T13:42:57;9.87;;;7.60;;
5898;SDS011;2975;50.956;6.962;2023-03-09T13:45:27;10.57;;;7.40;;
5898;SDS011;2975;50.956;6.962;2023-03-09T13:48:02;13.17;;;7.30;;
5898;SDS011;2975;50.956;6.962;2023-03-09T13:50:30;11.50;;;7.07;;
5898;SDS011;2975;50.956;6.962;2023-03-09T13:53:05;11.13;;;7.73;;
5898;SDS011;2975;50.956;6.962;2023-03-09T13:56:02;12.27;;;7.03;;
5898;SDS011;2975;50.956;6.962;2023-03-09T13:58:36;10.27;;;7.10;;
5898;SDS011;2975;50.956;6.962;2023-03-09T14:01:03;10.50;;;7.30;;
5898;SDS011;2975;50.956;6.962;2023-03-09T14:03:31;9.50;;;7.00;;
5898;SDS011;2975;50.956;6.962;2023-03-09T14:08:28;11.17;;;7.20;;
5898;SDS011;2975;50.956;6.962;2023-03-09T14:14:00;10.33;;;7.53;;
5898;SDS011;2975;50.956;6.962;2023-03-09T14:16:30;10.27;;;7.23;;
5898;SDS011;2975;50.956;6.962;2023-03-09T14:18:57;12.30;;;7.67;;
5898;SDS011;2975;50.956;6.962;2023-03-09T14:24:10;10.67;;;7.27;;
5898;SDS011;2975;50.956;6.962;2023-03-09T14:26:45;10.50;;;7.77;;
5898;SDS011;2975;50.956;6.962;2023-03-09T14:29:28;10.03;;;7.13;;
5898;SDS011;2975;50.956;6.962;2023-03-09T14:34:42;8.87;;;7.17;;
5898;SDS011;2975;50.956;6.962;2023-03-09T14:37:15;10.70;;;7.47;;
5898;SDS011;2975;50.956;6.962;2023-03-09T14:39:53;12.20;;;7.10;;
5898;SDS011;2975;50.956;6.962;2023-03-09T14:42:24;9.27;;;6.73;;
5898;SDS011;2975;50.956;6.962;2023-03-09T14:45:02;8.60;;;6.83;;
5898;SDS011;2975;50.956;6.962;2023-03-09T14:47:40;12.80;;;7.63;;
5898;SDS011;2975;50.956;6.962;2023-03-09T14:50:12;8.97;;;6.93;;
5898;SDS011;2975;50.956;6.962;2023-03-09T14:52:39;9.63;;;7.00;;
5898;SDS011;2975;50.956;6.962;2023-03-09T14:55:05;10.87;;;6.83;;
5898;SDS011;2975;50.956;6.962;2023-03-09T14:57:38;8.97;;;6.90;;
5898;SDS011;2975;50.956;6.962;2023-03-09T15:00:04;9.90;;;6.47;;
5898;SDS011;2975;50.956;6.962;2023-03-09T15:02:31;10.10;;;6.70;;
5898;SDS011;2975;50.956;6.962;2023-03-09T15:04:59;11.83;;;6.93;;
5898;SDS011;2975;50.956;6.962;2023-03-09T15:07:24;10.23;;;6.60;;
5898;SDS011;2975;50.956;6.962;2023-03-09T15:09:50;8.53;;;6.03;;
5898;SDS011;2975;50.956;6.962;2023-03-09T15:12:17;8.90;;;5.60;;
5898;SDS011;2975;50.956;6.962;2023-03-09T15:14:46;10.83;;;6.37;;
5898;SDS011;2975;50.956;6.962;2023-03-09T15:17:17;7.87;;;5.93;;
5898;SDS011;2975;50.956;6.962;2023-03-09T15:19:45;8.57;;;6.10;;
5898;SDS011;2975;50.956;6.962;2023-03-09T15:22:11;10.93;;;6.20;;
5898;SDS011;2975;50.956;6.962;2023-03-09T15:24:39;8.73;;;6.17;;
5898;SDS011;2975;50.956;6.962;2023-03-09T15:27:06;9.03;;;6.07;;
5898;SDS011;2975;50.956;6.962;2023-03-09T15:29:32;7.97;;;5.90;;
5898;SDS011;2975;50.956;6.962;2023-03-09T15:31:57;7.97;;;5.60;;
5898;SDS011;2975;50.956;6.962;2023-03-09T15:34:24;9.83;;;6.07;;
5898;SDS011;2975;50.956;6.962;2023-03-09T15:36:50;7.10;;;5.73;;
5898;SDS011;2975;50.956;6.962;2023-03-09T15:39:15;7.50;;;5.70;;
5898;SDS011;2975;50.956;6.962;2023-03-09T15:41:41;7.87;;;5.50;;
5898;SDS011;2975;50.956;6.962;2023-03-09T15:44:06;13.07;;;6.00;;
5898;SDS011;2975;50.956;6.962;2023-03-09T15:46:32;12.87;;;7.70;;
5898;SDS011;2975;50.956;6.962;2023-03-09T15:48:58;11.70;;;5.90;;
5898;SDS011;2975;50.956;6.962;2023-03-09T15:51:23;9.87;;;5.30;;
5898;SDS011;2975;50.956;6.962;2023-03-09T15:53:50;7.87;;;5.33;;
5898;SDS011;2975;50.956;6.962;2023-03-09T15:56:16;10.50;;;5.83;;
5898;SDS011;2975;50.956;6.962;2023-03-09T15:58:42;12.97;;;4.97;;
5898;SDS011;2975;50.956;6.962;2023-03-09T16:03:39;9.60;;;5.93;;
5898;SDS011;2975;50.956;6.962;2023-03-09T16:06:05;10.13;;;5.80;;
5898;SDS011;2975;50.956;6.962;2023-03-09T16:08:31;8.60;;;5.97;;
5898;SDS011;2975;50.956;6.962;2023-03-09T16:10:57;8.27;;;5.47;;
5898;SDS011;2975;50.956;6.962;2023-03-09T16:13:23;14.47;;;5.87;;
5898;SDS011;2975;50.956;6.962;2023-03-09T16:15:49;11.93;;;5.83;;
5898;SDS011;2975;50.956;6.962;2023-03-09T16:18:15;13.40;;;5.07;;
5898;SDS011;2975;50.956;6.962;2023-03-09T16:20:41;10.73;;;4.33;;
5898;SDS011;2975;50.956;6.962;2023-03-09T16:23:07;11.27;;;4.30;;
5898;SDS011;2975;50.956;6.962;2023-03-09T16:25:33;11.87;;;3.50;;
5898;SDS011;2975;50.956;6.962;2023-03-09T16:27:58;14.60;;;3.60;;
5898;SDS011;2975;50.956;6.962;2023-03-09T16:30:26;11.33;;;3.80;;
5898;SDS011;2975;50.956;6.962;2023-03-09T16:32:53;7.87;;;2.90;;
5898;SDS011;2975;50.956;6.962;2023-03-09T16:35:19;15.53;;;3.97;;
5898;SDS011;2975;50.956;6.962;2023-03-09T16:37:47;15.70;;;3.57;;
5898;SDS011;2975;50.956;6.962;2023-03-09T16:40:13;12.67;;;4.07;;
5898;SDS011;2975;50.956;6.962;2023-03-09T16:42:40;9.30;;;2.63;;
5898;SDS011;2975;50.956;6.962;2023-03-09T16:45:05;8.37;;;3.13;;
5898;SDS011;2975;50.956;6.962;2023-03-09T16:47:31;8.60;;;2.40;;